createdAt,value
2023-05-05T00:00:15.646Z,101526.09
2023-05-05T00:02:42.517Z,101524.91
2023-05-05T00:05:09.300Z,101534.97
2023-05-05T00:07:36.011Z,101522.09
2023-05-05T00:10:02.786Z,101535.16
2023-05-05T00:12:29.264Z,101529.31
2023-05-05T00:14:55.903Z,101520.25
2023-05-05T00:17:23.013Z,101528.44
2023-05-05T00:19:49.623Z,101539.25
2023-05-05T00:22:16.022Z,101526.38
2023-05-05T00:24:42.888Z,101525.28
2023-05-05T00:27:10.617Z,101520.06
2023-05-05T00:29:37.016Z,101513.88
2023-05-05T00:32:03.524Z,101512.91
2023-05-05T00:34:29.963Z,101509.47
2023-05-05T00:36:56.372Z,101512.91
2023-05-05T00:39:22.871Z,101507.69
2023-05-05T00:41:49.312Z,101505.69
2023-05-05T00:44:15.782Z,101523.94
2023-05-05T00:46:43.117Z,101525.13
2023-05-05T00:49:09.971Z,101532.94
2023-05-05T00:51:36.509Z,101534.28
2023-05-05T00:54:02.998Z,101542.66
2023-05-05T00:56:29.702Z,101539.63
2023-05-05T00:58:56.395Z,101534.75
2023-05-05T01:01:23.040Z,101534.94
2023-05-05T01:03:49.575Z,101528.75
2023-05-05T01:06:22.688Z,101519.28
2023-05-05T01:08:54.996Z,101519.91
2023-05-05T01:11:31.058Z,101524.94
2023-05-05T01:14:16.629Z,101520.34
2023-05-05T01:16:57.334Z,101517.00
2023-05-05T01:19:58.782Z,101515.38
2023-05-05T01:22:32.312Z,101533.13
2023-05-05T01:25:17.816Z,101524.28
2023-05-05T01:27:59.335Z,101535.97
2023-05-05T01:30:49.944Z,101532.81
2023-05-05T01:33:23.168Z,101536.03
2023-05-05T01:35:56.630Z,101541.88
2023-05-05T01:38:38.037Z,101546.91
2023-05-05T01:41:12.944Z,101551.16
2023-05-05T01:43:41.284Z,101550.97
2023-05-05T01:46:08.605Z,101553.41
2023-05-05T01:48:36.974Z,101534.94
2023-05-05T01:51:04.891Z,101547.81
2023-05-05T01:53:32.506Z,101554.06
2023-05-05T01:55:59.562Z,101561.13
2023-05-05T01:58:28.144Z,101558.31
2023-05-05T02:00:57.060Z,101565.97
2023-05-05T02:03:24.769Z,101572.19
2023-05-05T02:05:53.804Z,101575.59
2023-05-05T02:08:21.404Z,101583.06
2023-05-05T02:10:49.774Z,101571.44
2023-05-05T02:13:18.629Z,101559.78
2023-05-05T02:15:46.360Z,101539.72
2023-05-05T02:18:14.191Z,101531.69
2023-05-05T02:20:41.080Z,101517.69
2023-05-05T02:23:08.205Z,101506.06
2023-05-05T02:25:43.318Z,101522.81
2023-05-05T02:28:15.318Z,101534.66
2023-05-05T02:30:43.421Z,101538.84
2023-05-05T02:33:14.279Z,101550.03
2023-05-05T02:35:42.252Z,101535.13
2023-05-05T02:38:17.412Z,101539.06
2023-05-05T02:40:45.747Z,101542.09
2023-05-05T02:43:17.060Z,101541.81
2023-05-05T02:45:43.869Z,101540.97
2023-05-05T02:48:12.909Z,101539.25
2023-05-05T02:50:39.371Z,101541.00
2023-05-05T02:53:05.916Z,101535.91
2023-05-05T02:55:50.262Z,101532.59
2023-05-05T02:58:42.516Z,101539.34
2023-05-05T03:01:15.501Z,101536.81
2023-05-05T03:03:52.278Z,101535.91
2023-05-05T03:06:22.091Z,101538.00
2023-05-05T03:08:57.426Z,101543.31
2023-05-05T03:11:47.716Z,101551.06
2023-05-05T03:14:18.300Z,101549.53
2023-05-05T03:16:46.286Z,101551.25
2023-05-05T03:19:15.780Z,101557.00
2023-05-05T03:21:42.384Z,101564.53
2023-05-05T03:24:26.957Z,101565.25
2023-05-05T03:26:53.773Z,101569.38
2023-05-05T03:29:20.229Z,101569.25
2023-05-05T03:31:46.808Z,101570.63
2023-05-05T03:34:13.616Z,101584.19
2023-05-05T03:36:40.556Z,101582.88
2023-05-05T03:39:07.212Z,101580.81
2023-05-05T03:41:34.113Z,101573.06
2023-05-05T03:44:01.405Z,101562.53
2023-05-05T03:46:27.887Z,101562.72
2023-05-05T03:48:57.005Z,101558.66
2023-05-05T03:51:24.502Z,101574.47
2023-05-05T03:53:50.931Z,101574.81
2023-05-05T03:56:17.333Z,101582.97
2023-05-05T03:58:43.706Z,101588.53
2023-05-05T04:01:10.150Z,101603.19
2023-05-05T04:03:36.670Z,101609.38
2023-05-05T04:06:03.242Z,101609.38
2023-05-05T04:08:29.676Z,101601.84
2023-05-05T04:10:57.383Z,101614.16
2023-05-05T04:13:24.196Z,101621.47
2023-05-05T04:15:50.986Z,101630.72
2023-05-05T04:18:17.395Z,101627.13
2023-05-05T04:20:43.935Z,101632.81
2023-05-05T04:23:10.364Z,101634.25
2023-05-05T04:25:37.145Z,101641.75
2023-05-05T04:28:03.614Z,101641.75
2023-05-05T04:30:30.616Z,101636.19
2023-05-05T04:32:57.066Z,101642.06
2023-05-05T04:35:23.593Z,101643.34
2023-05-05T04:37:50.132Z,101649.25
2023-05-05T04:40:16.660Z,101652.69
2023-05-05T04:42:43.119Z,101659.91
2023-05-05T04:45:10.179Z,101663.91
2023-05-05T04:47:40.115Z,101657.66
2023-05-05T04:50:08.058Z,101649.09
2023-05-05T04:52:34.904Z,101652.03
2023-05-05T04:55:01.398Z,101658.53
2023-05-05T04:57:29.434Z,101652.59
2023-05-05T04:59:55.979Z,101666.00
2023-05-05T05:02:22.427Z,101657.50
2023-05-05T05:04:48.890Z,101669.63
2023-05-05T05:07:15.285Z,101666.06
2023-05-05T05:09:41.809Z,101672.25
2023-05-05T05:12:09.647Z,101669.78
2023-05-05T05:14:40.156Z,101678.78
2023-05-05T05:17:06.917Z,101668.13
2023-05-05T05:19:33.400Z,101666.63
2023-05-05T05:21:59.925Z,101659.06
2023-05-05T05:24:26.459Z,101659.34
2023-05-05T05:26:52.917Z,101662.22
2023-05-05T05:29:20.354Z,101663.19
2023-05-05T05:31:46.768Z,101666.84
2023-05-05T05:34:15.433Z,101666.88
2023-05-05T05:36:41.835Z,101666.19
2023-05-05T05:39:08.350Z,101674.47
2023-05-05T05:41:34.798Z,101665.38
2023-05-05T05:44:01.197Z,101676.50
2023-05-05T05:46:27.661Z,101680.38
2023-05-05T05:48:54.110Z,101690.38
2023-05-05T05:51:20.562Z,101689.03
2023-05-05T05:53:47.044Z,101693.06
2023-05-05T05:56:13.575Z,101697.59
2023-05-05T05:58:40.571Z,101690.91
2023-05-05T06:01:07.078Z,101690.28
2023-05-05T06:03:33.541Z,101682.56
2023-05-05T06:06:00.039Z,101687.03
2023-05-05T06:08:26.845Z,101684.75
2023-05-05T06:10:53.318Z,101689.53
2023-05-05T06:13:19.851Z,101684.53
2023-05-05T06:15:46.338Z,101680.88
2023-05-05T06:18:12.837Z,101677.53
2023-05-05T06:20:39.372Z,101683.16
2023-05-05T06:23:05.986Z,101675.69
2023-05-05T06:25:32.387Z,101680.16
2023-05-05T06:27:58.807Z,101678.19
2023-05-05T06:30:26.238Z,101674.53
2023-05-05T06:32:54.257Z,101684.28
2023-05-05T06:35:22.395Z,101685.19
2023-05-05T06:37:48.792Z,101689.78
2023-05-05T06:40:15.220Z,101694.19
2023-05-05T06:42:41.842Z,101700.47
2023-05-05T06:45:08.876Z,101693.91
2023-05-05T06:47:36.014Z,101695.44
2023-05-05T06:50:02.459Z,101705.91
2023-05-05T06:52:28.861Z,101699.25
2023-05-05T06:54:55.418Z,101701.00
2023-05-05T06:57:21.851Z,101700.63
2023-05-05T06:59:48.381Z,101706.03
2023-05-05T07:02:15.185Z,101706.91
2023-05-05T07:04:41.605Z,101705.91
2023-05-05T07:07:08.072Z,101715.34
2023-05-05T07:09:34.500Z,101714.34
2023-05-05T07:12:00.994Z,101723.06
2023-05-05T07:14:27.897Z,101720.69
2023-05-05T07:16:54.463Z,101717.47
2023-05-05T07:19:20.990Z,101721.97
2023-05-05T07:21:47.703Z,101722.38
2023-05-05T07:24:14.176Z,101714.47
2023-05-05T07:26:40.839Z,101721.38
2023-05-05T07:29:07.277Z,101724.22
2023-05-05T07:31:33.887Z,101723.19
2023-05-05T07:34:00.343Z,101726.38
2023-05-05T07:36:27.883Z,101720.94
2023-05-05T07:38:54.795Z,101721.38
2023-05-05T07:41:21.281Z,101721.13
2023-05-05T07:43:47.944Z,101716.88
2023-05-05T07:46:14.806Z,101718.47
2023-05-05T07:48:41.894Z,101720.84
2023-05-05T07:51:09.261Z,101724.41
2023-05-05T07:53:35.757Z,101726.94
2023-05-05T07:56:02.456Z,101734.63
2023-05-05T07:58:28.892Z,101728.78
2023-05-05T08:00:55.644Z,101720.53
2023-05-05T08:03:24.514Z,101726.03
2023-05-05T08:05:54.066Z,101730.97
2023-05-05T08:08:24.313Z,101728.91
2023-05-05T08:10:51.849Z,101731.31
2023-05-05T08:13:18.314Z,101728.66
2023-05-05T08:15:45.332Z,101735.88
2023-05-05T08:18:11.810Z,101738.94
2023-05-05T08:20:38.383Z,101732.66
2023-05-05T08:23:05.217Z,101735.59
2023-05-05T08:25:31.701Z,101729.09
2023-05-05T08:27:58.122Z,101728.03
2023-05-05T08:30:24.559Z,101727.13
2023-05-05T08:32:51.081Z,101729.75
2023-05-05T08:35:17.776Z,101733.09
2023-05-05T08:37:44.286Z,101731.06
2023-05-05T08:40:14.399Z,101739.97
2023-05-05T08:42:42.024Z,101747.63
2023-05-05T08:45:11.523Z,101748.22
2023-05-05T08:47:39.214Z,101749.63
2023-05-05T08:50:06.267Z,101746.97
2023-05-05T08:52:40.260Z,101747.91
2023-05-05T08:55:24.056Z,101749.38
2023-05-05T08:57:58.221Z,101740.66
2023-05-05T09:00:26.961Z,101751.47
2023-05-05T09:02:57.462Z,101757.22
2023-05-05T09:05:24.857Z,101754.38
2023-05-05T09:07:52.135Z,101764.13
2023-05-05T09:10:18.992Z,101758.94
2023-05-05T09:12:45.600Z,101748.81
2023-05-05T09:15:14.337Z,101751.84
2023-05-05T09:17:41.750Z,101741.84
2023-05-05T09:20:10.319Z,101750.81
2023-05-05T09:22:42.132Z,101752.44
2023-05-05T09:25:11.054Z,101748.31
2023-05-05T09:27:42.871Z,101750.63
2023-05-05T09:30:12.739Z,101752.81
2023-05-05T09:32:51.381Z,101747.84
2023-05-05T09:35:19.492Z,101755.44
2023-05-05T09:37:46.357Z,101745.03
2023-05-05T09:40:15.208Z,101740.19
2023-05-05T09:42:41.635Z,101748.13
2023-05-05T09:45:27.529Z,101745.91
2023-05-05T09:47:59.190Z,101744.50
2023-05-05T09:50:30.320Z,101742.78
2023-05-05T09:53:03.058Z,101742.91
2023-05-05T09:55:31.296Z,101737.66
2023-05-05T09:58:16.640Z,101733.41
2023-05-05T10:00:43.215Z,101729.75
2023-05-05T10:03:09.690Z,101740.06
2023-05-05T10:05:50.700Z,101744.91
2023-05-05T10:08:19.484Z,101748.59
2023-05-05T10:11:06.691Z,101743.88
2023-05-05T10:13:37.710Z,101749.84
2023-05-05T10:16:08.312Z,101758.59
2023-05-05T10:18:35.605Z,101776.84
2023-05-05T10:21:04.169Z,101792.25
2023-05-05T10:23:57.864Z,101800.72
2023-05-05T10:26:27.512Z,101814.22
2023-05-05T10:29:01.597Z,101806.56
2023-05-05T10:31:45.509Z,101787.94
2023-05-05T10:34:37.949Z,101803.00
2023-05-05T10:37:06.681Z,101791.31
2023-05-05T10:39:36.592Z,101785.22
2023-05-05T10:42:03.449Z,101780.38
2023-05-05T10:44:32.406Z,101775.78
2023-05-05T10:47:00.248Z,101770.72
2023-05-05T10:49:40.634Z,101782.63
2023-05-05T10:52:17.333Z,101790.59
2023-05-05T10:55:09.210Z,101788.06
2023-05-05T10:57:40.456Z,101798.00
2023-05-05T11:00:08.793Z,101806.63
2023-05-05T11:02:36.199Z,101811.59
2023-05-05T11:05:18.073Z,101813.13
2023-05-05T11:07:46.357Z,101828.34
2023-05-05T11:10:15.063Z,101829.41
2023-05-05T11:12:54.024Z,101820.88
2023-05-05T11:15:29.977Z,101810.94
2023-05-05T11:17:57.394Z,101808.06
2023-05-05T11:20:36.757Z,101807.25
2023-05-05T11:23:03.260Z,101812.50
2023-05-05T11:25:40.569Z,101816.28
2023-05-05T11:28:17.281Z,101811.41
2023-05-05T11:30:55.935Z,101807.81
2023-05-05T11:33:36.991Z,101815.47
2023-05-05T11:36:08.606Z,101822.13
2023-05-05T11:38:40.781Z,101824.88
2023-05-05T11:41:10.182Z,101844.56
2023-05-05T11:43:36.650Z,101833.91
2023-05-05T11:46:13.055Z,101829.47
2023-05-05T11:48:54.520Z,101832.72
2023-05-05T11:51:22.144Z,101830.47
2023-05-05T11:53:49.871Z,101842.75
2023-05-05T11:56:21.834Z,101832.03
2023-05-05T11:58:49.619Z,101821.38
2023-05-05T12:01:16.657Z,101826.81
2023-05-05T12:03:45.321Z,101835.44
2023-05-05T12:06:13.137Z,101833.81
2023-05-05T12:08:40.779Z,101824.97
2023-05-05T12:11:09.301Z,101816.53
2023-05-05T12:13:35.733Z,101818.69
2023-05-05T12:16:12.759Z,101812.47
2023-05-05T12:18:39.876Z,101815.91
2023-05-05T12:21:19.520Z,101816.94
2023-05-05T12:23:46.425Z,101815.78
2023-05-05T12:26:34.916Z,101820.00
2023-05-05T12:29:01.610Z,101823.88
2023-05-05T12:31:37.340Z,101825.94
2023-05-05T12:34:04.837Z,101822.06
2023-05-05T12:36:33.653Z,101822.06
2023-05-05T12:39:00.412Z,101824.88
2023-05-05T12:41:27.172Z,101819.81
2023-05-05T12:43:58.466Z,101821.63
2023-05-05T12:46:32.195Z,101819.03
2023-05-05T12:49:06.520Z,101816.84
2023-05-05T12:51:34.395Z,101821.69
2023-05-05T12:54:08.087Z,101820.41
2023-05-05T12:56:45.908Z,101818.47
2023-05-05T12:59:29.247Z,101814.47
2023-05-05T13:01:57.398Z,101810.47
2023-05-05T13:04:25.793Z,101810.66
2023-05-05T13:07:09.934Z,101806.22
2023-05-05T13:09:36.790Z,101801.81
2023-05-05T13:12:04.379Z,101794.53
2023-05-05T13:14:34.847Z,101797.16
2023-05-05T13:17:01.298Z,101791.34
2023-05-05T13:19:27.789Z,101808.28
2023-05-05T13:21:55.398Z,101800.31
2023-05-05T13:24:34.307Z,101815.78
2023-05-05T13:27:09.313Z,101810.56
2023-05-05T13:29:35.822Z,101809.56
2023-05-05T13:32:02.261Z,101824.44
2023-05-05T13:34:29.102Z,101825.28
2023-05-05T13:36:56.285Z,101828.69
2023-05-05T13:39:22.805Z,101821.44
2023-05-05T13:41:49.386Z,101823.44
2023-05-05T13:44:15.994Z,101829.06
2023-05-05T13:46:42.945Z,101836.03
2023-05-05T13:49:09.406Z,101831.34
2023-05-05T13:51:36.890Z,101839.94
2023-05-05T13:54:03.928Z,101840.69
2023-05-05T13:56:30.475Z,101842.25
2023-05-05T13:58:57.303Z,101841.13
2023-05-05T14:01:23.808Z,101834.91
2023-05-05T14:03:50.561Z,101830.84
2023-05-05T14:06:17.120Z,101827.19
2023-05-05T14:08:43.584Z,101833.22
2023-05-05T14:11:10.100Z,101820.69
2023-05-05T14:13:36.629Z,101821.66
2023-05-05T14:16:03.048Z,101815.28
2023-05-05T14:18:29.690Z,101814.09
2023-05-05T14:20:56.203Z,101812.97
2023-05-05T14:23:22.679Z,101809.47
2023-05-05T14:25:49.125Z,101795.91
2023-05-05T14:28:16.072Z,101795.22
2023-05-05T14:30:42.486Z,101783.78
2023-05-05T14:33:08.933Z,101777.16
2023-05-05T14:35:35.469Z,101779.78
2023-05-05T14:38:01.876Z,101773.13
2023-05-05T14:40:29.477Z,101769.69
2023-05-05T14:42:55.949Z,101761.16
2023-05-05T14:45:22.424Z,101759.84
2023-05-05T14:47:48.952Z,101737.28
2023-05-05T14:50:15.709Z,101729.66
2023-05-05T14:52:44.435Z,101733.47
2023-05-05T14:55:11.499Z,101740.63
2023-05-05T14:57:38.847Z,101753.47
2023-05-05T15:00:06.900Z,101765.28
2023-05-05T15:05:00.286Z,101776.25
2023-05-05T15:07:28.738Z,101772.75
2023-05-05T15:09:58.701Z,101773.28
2023-05-05T15:12:26.222Z,101773.72
2023-05-05T15:14:52.751Z,101770.84
2023-05-05T15:17:19.305Z,101774.47
2023-05-05T15:19:46.130Z,101779.53
2023-05-05T15:22:12.536Z,101772.66
2023-05-05T15:24:39.036Z,101765.00
2023-05-05T15:27:05.493Z,101765.22
2023-05-05T15:29:32.241Z,101766.28
2023-05-05T15:31:58.791Z,101756.44
2023-05-05T15:34:26.168Z,101766.56
2023-05-05T15:36:52.708Z,101757.84
2023-05-05T15:39:19.250Z,101758.28
2023-05-05T15:41:45.648Z,101752.34
2023-05-05T15:44:12.543Z,101753.34
2023-05-05T15:46:39.729Z,101749.56
2023-05-05T15:49:06.297Z,101743.53
2023-05-05T15:51:32.747Z,101744.53
2023-05-05T15:53:59.570Z,101751.38
2023-05-05T15:56:27.518Z,101751.59
2023-05-05T15:58:54.348Z,101746.13
2023-05-05T16:01:21.016Z,101745.31
2023-05-05T16:03:47.512Z,101739.44
2023-05-05T16:06:14.010Z,101742.25
2023-05-05T16:08:41.093Z,101740.22
2023-05-05T16:11:07.585Z,101733.78
2023-05-05T16:13:34.058Z,101732.19
2023-05-05T16:16:00.465Z,101738.28
2023-05-05T16:18:26.918Z,101741.91
2023-05-05T16:20:53.308Z,101742.34
2023-05-05T16:23:19.874Z,101732.25
2023-05-05T16:25:46.421Z,101730.25
2023-05-05T16:28:12.964Z,101730.66
2023-05-05T16:30:39.909Z,101724.34
2023-05-05T16:33:06.840Z,101721.69
2023-05-05T16:35:33.423Z,101722.44
2023-05-05T16:37:59.871Z,101722.59
2023-05-05T16:40:26.576Z,101713.63
2023-05-05T16:42:53.003Z,101709.41
2023-05-05T16:45:19.445Z,101724.53
2023-05-05T16:47:45.902Z,101714.09
2023-05-05T16:50:12.394Z,101705.63
2023-05-05T16:52:38.788Z,101709.28
2023-05-05T16:55:05.484Z,101708.88
2023-05-05T16:57:32.007Z,101709.28
2023-05-05T16:59:58.499Z,101716.00
2023-05-05T17:02:24.953Z,101713.16
2023-05-05T17:04:51.399Z,101715.44
2023-05-05T17:07:17.778Z,101722.97
2023-05-05T17:09:44.916Z,101725.00
2023-05-05T17:12:11.400Z,101720.38
2023-05-05T17:14:38.422Z,101711.16
2023-05-05T17:17:05.083Z,101730.19
2023-05-05T17:19:31.587Z,101727.38
2023-05-05T17:21:57.997Z,101726.97
2023-05-05T17:24:24.399Z,101724.16
2023-05-05T17:26:50.954Z,101730.03
2023-05-05T17:29:21.490Z,101725.41
2023-05-05T17:31:48.030Z,101729.66
2023-05-05T17:34:14.413Z,101729.66
2023-05-05T17:36:41.169Z,101729.81
2023-05-05T17:39:07.927Z,101732.66
2023-05-05T17:41:34.455Z,101727.19
2023-05-05T17:44:00.826Z,101720.13
2023-05-05T17:46:27.797Z,101731.66
2023-05-05T17:48:54.870Z,101728.59
2023-05-05T17:51:21.676Z,101738.28
2023-05-05T17:53:48.079Z,101736.47
2023-05-05T17:56:14.459Z,101734.03
2023-05-05T17:58:41.268Z,101738.88
2023-05-05T18:01:07.814Z,101744.91
2023-05-05T18:03:34.406Z,101747.50
2023-05-05T18:06:02.256Z,101750.09
2023-05-05T18:08:28.739Z,101742.81
2023-05-05T18:10:55.168Z,101750.66
2023-05-05T18:13:21.766Z,101747.59
2023-05-05T18:15:48.216Z,101754.44
2023-05-05T18:18:14.719Z,101755.41
2023-05-05T18:20:41.188Z,101748.28
2023-05-05T18:23:07.570Z,101753.09
2023-05-05T18:25:33.964Z,101740.97
2023-05-05T18:28:00.435Z,101743.94
2023-05-05T18:30:26.864Z,101735.25
2023-05-05T18:32:53.340Z,101743.47
2023-05-05T18:35:19.837Z,101739.84
2023-05-05T18:37:46.255Z,101744.97
2023-05-05T18:40:12.970Z,101752.16
2023-05-05T18:42:39.468Z,101758.50
2023-05-05T18:45:06.501Z,101761.09
2023-05-05T18:47:33.785Z,101758.16
2023-05-05T18:50:00.220Z,101764.75
2023-05-05T18:52:27.392Z,101760.47
2023-05-05T18:54:53.809Z,101764.66
2023-05-05T18:57:20.188Z,101758.84
2023-05-05T18:59:46.635Z,101761.53
2023-05-05T19:02:13.292Z,101768.50
2023-05-05T19:04:41.314Z,101758.16
2023-05-05T19:07:07.821Z,101765.75
2023-05-05T19:09:34.399Z,101761.63
2023-05-05T19:12:02.365Z,101761.28
2023-05-05T19:14:28.888Z,101765.97
2023-05-05T19:17:01.652Z,101767.44
2023-05-05T19:19:28.132Z,101775.34
2023-05-05T19:21:54.862Z,101769.91
2023-05-05T19:24:21.348Z,101768.75
2023-05-05T19:26:47.738Z,101777.91
2023-05-05T19:29:14.303Z,101773.56
2023-05-05T19:31:40.704Z,101784.53
2023-05-05T19:34:07.470Z,101787.22
2023-05-05T19:36:34.641Z,101784.97
2023-05-05T19:39:02.279Z,101792.88
2023-05-05T19:41:29.898Z,101789.94
2023-05-05T19:43:57.307Z,101793.09
2023-05-05T19:46:26.313Z,101795.41
2023-05-05T19:48:52.962Z,101801.34
2023-05-05T19:51:19.497Z,101802.19
2023-05-05T19:53:45.960Z,101798.81
2023-05-05T19:56:12.396Z,101798.50
2023-05-05T19:59:01.678Z,101795.44
2023-05-05T20:01:29.402Z,101800.19
2023-05-05T20:03:56.546Z,101804.13
2023-05-05T20:06:24.234Z,101801.22
2023-05-05T20:08:50.879Z,101793.91
2023-05-05T20:11:17.654Z,101801.13
2023-05-05T20:13:44.226Z,101807.06
2023-05-05T20:16:10.779Z,101804.94
2023-05-05T20:18:37.255Z,101799.94
2023-05-05T20:21:03.716Z,101804.69
2023-05-05T20:23:30.390Z,101800.94
2023-05-05T20:25:57.227Z,101805.19
2023-05-05T20:28:23.853Z,101799.81
2023-05-05T20:30:50.276Z,101807.16
2023-05-05T20:33:16.648Z,101812.88
2023-05-05T20:35:43.126Z,101819.69
2023-05-05T20:38:10.086Z,101819.03
2023-05-05T20:40:36.838Z,101813.19
2023-05-05T20:43:03.277Z,101815.31
2023-05-05T20:45:31.664Z,101810.78
2023-05-05T20:48:00.013Z,101808.50
2023-05-05T20:50:26.602Z,101814.84
2023-05-05T20:52:53.020Z,101802.31
2023-05-05T20:55:19.586Z,101806.06
2023-05-05T20:57:46.289Z,101804.28
2023-05-05T21:00:12.963Z,101798.75
2023-05-05T21:02:39.497Z,101800.88
2023-05-05T21:05:06.501Z,101800.56
2023-05-05T21:07:35.949Z,101805.75
2023-05-05T21:10:03.695Z,101805.25
2023-05-05T21:12:30.669Z,101812.56
2023-05-05T21:14:58.744Z,101801.69
2023-05-05T21:17:26.281Z,101797.78
2023-05-05T21:19:53.224Z,101796.31
2023-05-05T21:22:20.733Z,101800.22
2023-05-05T21:24:47.389Z,101803.28
2023-05-05T21:27:13.924Z,101802.31
2023-05-05T21:29:40.812Z,101801.00
2023-05-05T21:32:08.664Z,101801.31
2023-05-05T21:34:35.525Z,101800.81
2023-05-05T21:37:02.284Z,101799.53
2023-05-05T21:39:30.545Z,101806.66
2023-05-05T21:41:57.018Z,101805.19
2023-05-05T21:44:25.405Z,101801.59
2023-05-05T21:46:55.517Z,101808.59
2023-05-05T21:49:21.987Z,101803.41
2023-05-05T21:51:48.742Z,101794.97
2023-05-05T21:54:15.443Z,101794.78
2023-05-05T21:56:41.855Z,101796.22
2023-05-05T21:59:08.291Z,101797.69
2023-05-05T22:01:35.086Z,101799.78
2023-05-05T22:04:01.685Z,101788.72
2023-05-05T22:06:28.149Z,101802.69
2023-05-05T22:08:54.674Z,101803.00
2023-05-05T22:11:21.312Z,101796.75
2023-05-05T22:13:47.809Z,101796.44
2023-05-05T22:16:18.609Z,101792.38
2023-05-05T22:18:46.111Z,101792.53
2023-05-05T22:21:12.649Z,101795.28
2023-05-05T22:23:41.380Z,101797.34
2023-05-05T22:26:08.738Z,101801.75
2023-05-05T22:28:35.399Z,101801.28
2023-05-05T22:31:02.511Z,101809.09
2023-05-05T22:33:29.010Z,101796.44
2023-05-05T22:35:55.724Z,101794.84
2023-05-05T22:38:22.252Z,101795.31
2023-05-05T22:40:48.743Z,101799.34
2023-05-05T22:43:15.367Z,101794.59
2023-05-05T22:45:42.997Z,101794.91
2023-05-05T22:48:09.541Z,101792.16
2023-05-05T22:50:36.076Z,101796.88
2023-05-05T22:53:02.463Z,101800.16
2023-05-05T22:55:28.923Z,101792.88
2023-05-05T22:57:55.421Z,101786.53
2023-05-05T23:00:21.912Z,101795.00
2023-05-05T23:02:48.448Z,101790.59
2023-05-05T23:05:14.909Z,101796.31
2023-05-05T23:07:41.303Z,101793.72
2023-05-05T23:10:08.745Z,101789.03
2023-05-05T23:12:35.578Z,101786.97
2023-05-05T23:15:02.201Z,101786.97
2023-05-05T23:17:28.695Z,101789.19
2023-05-05T23:19:55.154Z,101784.47
2023-05-05T23:22:21.522Z,101789.66
2023-05-05T23:24:48.025Z,101780.06
2023-05-05T23:27:14.416Z,101787.72
2023-05-05T23:29:40.818Z,101785.25
2023-05-05T23:32:07.711Z,101781.19
2023-05-05T23:34:34.078Z,101778.59
2023-05-05T23:37:00.497Z,101776.16
2023-05-05T23:39:26.899Z,101776.28
2023-05-05T23:41:53.298Z,101780.03
2023-05-05T23:44:19.743Z,101782.63
2023-05-05T23:46:46.521Z,101780.03
2023-05-05T23:49:13.010Z,101777.44
2023-05-05T23:51:39.391Z,101770.47
2023-05-05T23:54:05.940Z,101772.09
2023-05-05T23:56:32.426Z,101774.69
2023-05-05T23:58:58.851Z,101772.09
